createdAt,value
2023-05-19T00:02:05.814Z,14.71
2023-05-19T00:04:35.446Z,14.67
2023-05-19T00:07:05.575Z,14.70
2023-05-19T00:09:34.757Z,14.61
2023-05-19T00:12:03.797Z,13.77
2023-05-19T00:14:34.637Z,14.48
2023-05-19T00:17:03.710Z,14.36
2023-05-19T00:19:32.464Z,14.29
2023-05-19T00:22:00.929Z,14.27
2023-05-19T00:24:29.784Z,14.27
2023-05-19T00:26:58.209Z,14.23
2023-05-19T00:29:26.639Z,14.20
2023-05-19T00:31:57.404Z,14.19
2023-05-19T00:34:25.936Z,14.24
2023-05-19T00:36:54.239Z,14.14
2023-05-19T00:39:22.616Z,14.18
2023-05-19T00:41:50.950Z,14.17
2023-05-19T00:44:19.452Z,14.23
2023-05-19T00:46:47.817Z,14.15
2023-05-19T00:49:17.979Z,14.15
2023-05-19T00:51:46.792Z,14.06
2023-05-19T00:54:15.926Z,14.13
2023-05-19T00:56:44.294Z,14.09
2023-05-19T00:59:12.682Z,14.05
2023-05-19T01:01:42.395Z,14.04
2023-05-19T01:04:11.618Z,14.06
2023-05-19T01:06:41.830Z,14.03
2023-05-19T01:09:10.391Z,13.97
2023-05-19T01:11:38.874Z,14.00
2023-05-19T01:14:07.219Z,13.97
2023-05-19T01:16:41.694Z,13.96
2023-05-19T01:19:32.103Z,13.95
2023-05-19T01:22:22.820Z,13.93
2023-05-19T01:25:44.964Z,13.89
2023-05-19T01:28:37.963Z,13.85
2023-05-19T01:31:11.853Z,13.87
2023-05-19T01:33:42.650Z,13.85
2023-05-19T01:36:12.377Z,13.77
2023-05-19T01:38:41.362Z,13.78
2023-05-19T01:41:10.857Z,13.50
2023-05-19T01:43:39.977Z,13.66
2023-05-19T01:46:10.331Z,13.62
2023-05-19T01:48:39.491Z,13.61
2023-05-19T01:51:07.836Z,13.57
2023-05-19T01:53:36.752Z,13.57
2023-05-19T01:56:06.161Z,13.46
2023-05-19T01:58:45.896Z,13.47
2023-05-19T02:01:30.422Z,13.37
2023-05-19T02:04:18.521Z,13.24
2023-05-19T02:06:54.971Z,13.24
2023-05-19T02:09:30.359Z,13.20
2023-05-19T02:12:07.599Z,13.18
2023-05-19T02:14:45.055Z,13.24
2023-05-19T02:17:17.651Z,12.95
2023-05-19T02:19:46.355Z,13.09
2023-05-19T02:22:16.190Z,13.14
2023-05-19T02:24:46.603Z,12.99
2023-05-19T02:27:15.037Z,13.05
2023-05-19T02:29:44.629Z,12.96
2023-05-19T02:32:14.799Z,12.89
2023-05-19T02:34:45.636Z,12.89
2023-05-19T02:37:14.769Z,12.97
2023-05-19T02:39:43.429Z,12.96
2023-05-19T02:42:12.335Z,13.01
2023-05-19T02:44:40.613Z,13.03
2023-05-19T02:47:08.983Z,13.06
2023-05-19T02:49:38.693Z,13.05
2023-05-19T02:52:07.891Z,13.06
2023-05-19T02:54:36.551Z,13.06
2023-05-19T02:57:05.433Z,13.09
2023-05-19T02:59:33.981Z,13.12
2023-05-19T03:02:03.783Z,13.06
2023-05-19T03:04:32.137Z,13.06
2023-05-19T03:07:02.239Z,13.11
2023-05-19T03:09:31.264Z,13.13
2023-05-19T03:12:03.914Z,13.08
2023-05-19T03:14:33.907Z,13.09
2023-05-19T03:17:02.506Z,13.13
2023-05-19T03:19:32.543Z,13.13
2023-05-19T03:22:02.318Z,13.08
2023-05-19T03:24:30.665Z,13.09
2023-05-19T03:26:59.041Z,13.04
2023-05-19T03:29:27.433Z,13.04
2023-05-19T03:31:56.083Z,13.04
2023-05-19T03:34:24.576Z,13.02
2023-05-19T03:36:52.953Z,12.99
2023-05-19T03:39:23.596Z,13.00
2023-05-19T03:41:52.857Z,12.99
2023-05-19T03:44:21.131Z,12.94
2023-05-19T03:46:49.633Z,12.83
2023-05-19T03:49:43.832Z,12.96
2023-05-19T03:52:30.859Z,13.00
2023-05-19T03:55:10.456Z,12.97
2023-05-19T03:57:38.816Z,12.91
2023-05-19T04:00:11.230Z,12.91
2023-05-19T04:02:40.593Z,12.91
2023-05-19T04:05:10.098Z,12.85
2023-05-19T04:07:39.174Z,12.88
2023-05-19T04:10:10.106Z,12.90
2023-05-19T04:12:38.479Z,12.88
2023-05-19T04:15:08.323Z,12.89
2023-05-19T04:17:36.861Z,12.25
2023-05-19T04:20:06.441Z,12.90
2023-05-19T04:22:35.054Z,12.92
2023-05-19T04:25:04.742Z,12.87
2023-05-19T04:27:36.603Z,12.89
2023-05-19T04:30:06.040Z,12.92
2023-05-19T04:32:34.532Z,12.96
2023-05-19T04:35:03.273Z,12.91
2023-05-19T04:37:31.674Z,12.98
2023-05-19T04:40:00.398Z,13.00
2023-05-19T04:42:30.764Z,13.04
2023-05-19T04:45:03.582Z,13.05
2023-05-19T04:47:36.979Z,13.09
2023-05-19T04:50:07.412Z,13.11
2023-05-19T04:52:36.251Z,13.14
2023-05-19T04:55:07.692Z,13.18
2023-05-19T04:57:37.682Z,13.24
2023-05-19T05:00:13.296Z,13.28
2023-05-19T05:03:05.146Z,13.30
2023-05-19T05:05:34.552Z,13.38
2023-05-19T05:08:03.179Z,13.37
2023-05-19T05:10:36.579Z,13.41
2023-05-19T05:13:05.729Z,13.32
2023-05-19T05:15:36.244Z,13.46
2023-05-19T05:18:05.762Z,13.52
2023-05-19T05:20:35.379Z,13.58
2023-05-19T05:23:04.531Z,13.68
2023-05-19T05:25:35.337Z,13.67
2023-05-19T05:28:05.353Z,13.74
2023-05-19T05:30:37.677Z,13.86
2023-05-19T05:33:08.451Z,13.87
2023-05-19T05:35:39.926Z,13.87
2023-05-19T05:38:11.397Z,13.95
2023-05-19T05:40:40.084Z,13.97
2023-05-19T05:43:09.628Z,14.08
2023-05-19T05:45:45.614Z,14.03
2023-05-19T05:48:15.008Z,14.20
2023-05-19T05:50:46.474Z,14.30
2023-05-19T05:53:21.376Z,14.41
2023-05-19T05:55:53.596Z,14.53
2023-05-19T05:58:24.301Z,14.56
2023-05-19T06:00:57.581Z,14.64
2023-05-19T06:03:27.397Z,14.66
2023-05-19T06:05:57.668Z,14.63
2023-05-19T06:08:26.052Z,14.65
2023-05-19T06:10:54.579Z,14.67
2023-05-19T06:13:24.192Z,14.78
2023-05-19T06:15:54.274Z,14.89
2023-05-19T06:18:27.485Z,15.00
2023-05-19T06:20:56.117Z,15.15
2023-05-19T06:23:25.282Z,15.27
2023-05-19T06:25:53.861Z,15.41
2023-05-19T06:28:22.292Z,15.39
2023-05-19T06:30:55.009Z,15.68
2023-05-19T06:33:43.374Z,15.75
2023-05-19T06:36:12.089Z,15.89
2023-05-19T06:38:42.943Z,16.06
2023-05-19T06:41:11.647Z,16.17
2023-05-19T06:43:40.285Z,16.21
2023-05-19T06:46:13.115Z,16.30
2023-05-19T06:48:41.725Z,16.42
2023-05-19T06:51:10.546Z,16.32
2023-05-19T06:53:40.916Z,16.23
2023-05-19T06:56:10.826Z,16.25
2023-05-19T06:58:41.328Z,16.40
2023-05-19T07:01:11.252Z,16.45
2023-05-19T07:03:46.736Z,16.57
2023-05-19T07:06:16.211Z,16.70
2023-05-19T07:08:45.049Z,16.84
2023-05-19T07:11:14.173Z,16.78
2023-05-19T07:13:43.401Z,15.87
2023-05-19T07:16:13.580Z,15.33
2023-05-19T07:18:42.058Z,15.09
2023-05-19T07:21:12.118Z,15.60
2023-05-19T07:23:40.619Z,15.82
2023-05-19T07:26:09.043Z,15.55
2023-05-19T07:28:39.856Z,15.75
2023-05-19T07:31:10.416Z,16.12
2023-05-19T07:33:40.241Z,15.94
2023-05-19T07:36:09.067Z,16.21
2023-05-19T07:38:37.465Z,15.88
2023-05-19T07:41:06.072Z,16.24
2023-05-19T07:43:34.558Z,16.53
2023-05-19T07:46:02.930Z,16.79
2023-05-19T07:48:31.392Z,16.98
2023-05-19T07:51:01.187Z,16.82
2023-05-19T07:53:29.533Z,15.72
2023-05-19T07:55:58.774Z,15.07
2023-05-19T07:58:27.624Z,15.80
2023-05-19T08:00:58.798Z,16.26
2023-05-19T08:03:27.724Z,16.39
2023-05-19T08:05:56.411Z,16.15
2023-05-19T08:08:26.700Z,16.56
2023-05-19T08:10:55.079Z,16.95
2023-05-19T08:13:23.489Z,17.26
2023-05-19T08:15:51.932Z,17.48
2023-05-19T08:18:20.671Z,17.71
2023-05-19T08:20:48.975Z,17.93
2023-05-19T08:23:17.585Z,17.82
2023-05-19T08:25:47.357Z,18.03
2023-05-19T08:28:16.016Z,18.22
2023-05-19T08:30:44.365Z,18.40
2023-05-19T08:33:12.932Z,18.70
2023-05-19T08:35:41.436Z,18.87
2023-05-19T08:38:09.869Z,18.90
2023-05-19T08:40:40.628Z,19.08
2023-05-19T08:43:11.244Z,19.26
2023-05-19T08:45:41.354Z,19.39
2023-05-19T08:48:09.919Z,19.34
2023-05-19T08:50:42.639Z,19.55
2023-05-19T08:53:31.926Z,18.09
2023-05-19T08:56:11.145Z,18.38
2023-05-19T08:58:44.202Z,18.78
2023-05-19T09:01:16.908Z,19.08
2023-05-19T09:03:46.432Z,19.39
2023-05-19T09:06:14.972Z,19.79
2023-05-19T09:08:45.050Z,19.87
2023-05-19T09:11:14.436Z,20.04
2023-05-19T09:13:44.123Z,20.24
2023-05-19T09:16:12.837Z,20.20
2023-05-19T09:18:41.674Z,20.32
2023-05-19T09:21:11.954Z,19.13
2023-05-19T09:23:40.340Z,18.46
2023-05-19T09:26:08.800Z,19.07
2023-05-19T09:28:38.381Z,19.06
2023-05-19T09:31:09.927Z,19.37
2023-05-19T09:33:41.501Z,18.81
2023-05-19T09:36:11.880Z,17.92
2023-05-19T09:38:41.432Z,17.09
2023-05-19T09:41:10.222Z,17.27
2023-05-19T09:43:38.544Z,17.57
2023-05-19T09:46:12.170Z,18.04
2023-05-19T09:48:42.908Z,18.29
2023-05-19T09:51:11.744Z,17.86
2023-05-19T09:53:40.220Z,18.63
2023-05-19T09:56:11.079Z,19.05
2023-05-19T09:58:43.207Z,19.50
2023-05-19T10:01:13.020Z,19.84
2023-05-19T10:03:43.099Z,20.17
2023-05-19T10:06:12.370Z,18.97
2023-05-19T10:08:42.651Z,19.36
2023-05-19T10:11:12.393Z,19.64
2023-05-19T10:13:41.118Z,18.36
2023-05-19T10:16:12.191Z,19.21
2023-05-19T10:18:42.229Z,19.69
2023-05-19T10:21:11.990Z,19.57
2023-05-19T10:23:40.350Z,19.04
2023-05-19T10:26:10.844Z,18.82
2023-05-19T10:28:42.681Z,18.36
2023-05-19T10:31:18.254Z,18.33
2023-05-19T10:34:15.658Z,18.78
2023-05-19T10:36:48.899Z,19.25
2023-05-19T10:39:23.711Z,19.67
2023-05-19T10:42:03.399Z,19.52
2023-05-19T10:44:50.950Z,19.96
2023-05-19T10:47:25.912Z,19.24
2023-05-19T10:49:55.809Z,18.25
2023-05-19T10:52:29.621Z,17.68
2023-05-19T10:54:58.481Z,17.57
2023-05-19T10:57:31.775Z,17.71
2023-05-19T11:00:01.253Z,17.44
2023-05-19T11:02:42.075Z,17.75
2023-05-19T11:05:12.905Z,18.16
2023-05-19T11:07:44.376Z,18.69
2023-05-19T11:10:13.760Z,19.16
2023-05-19T11:12:44.099Z,19.63
2023-05-19T11:15:14.917Z,18.48
2023-05-19T11:17:49.329Z,18.21
2023-05-19T11:20:26.311Z,18.15
2023-05-19T11:23:08.431Z,18.60
2023-05-19T11:25:45.797Z,18.25
2023-05-19T11:28:16.883Z,17.72
2023-05-19T11:30:50.417Z,17.71
2023-05-19T11:33:21.751Z,17.91
2023-05-19T11:35:52.235Z,18.36
2023-05-19T11:38:21.786Z,18.55
2023-05-19T11:40:51.123Z,18.76
2023-05-19T11:43:19.471Z,19.25
2023-05-19T11:45:47.967Z,18.64
2023-05-19T11:48:17.556Z,19.45
2023-05-19T11:50:47.536Z,19.55
2023-05-19T11:53:17.586Z,19.60
2023-05-19T11:55:47.846Z,20.20
2023-05-19T11:58:17.551Z,20.45
2023-05-19T12:00:47.922Z,20.73
2023-05-19T12:03:17.777Z,20.92
2023-05-19T12:05:50.190Z,21.12
2023-05-19T12:08:19.453Z,20.89
2023-05-19T12:10:50.963Z,20.90
2023-05-19T12:13:21.053Z,20.70
2023-05-19T12:15:52.052Z,20.64
2023-05-19T12:18:21.421Z,20.00
2023-05-19T12:20:51.481Z,19.68
2023-05-19T12:23:20.218Z,20.38
2023-05-19T12:25:49.916Z,20.79
2023-05-19T12:28:18.307Z,21.08
2023-05-19T12:30:52.135Z,21.28
2023-05-19T12:33:20.639Z,20.07
2023-05-19T12:35:52.364Z,19.57
2023-05-19T12:38:21.665Z,19.60
2023-05-19T12:40:51.657Z,20.13
2023-05-19T12:43:24.204Z,20.52
2023-05-19T12:45:53.475Z,20.91
2023-05-19T12:48:23.965Z,21.14
2023-05-19T12:50:55.848Z,21.48
2023-05-19T12:53:27.683Z,21.50
2023-05-19T12:55:56.922Z,21.63
2023-05-19T12:58:25.343Z,21.84
2023-05-19T13:01:00.841Z,21.89
2023-05-19T13:03:29.408Z,21.91
2023-05-19T13:05:59.714Z,21.88
2023-05-19T13:08:28.377Z,22.02
2023-05-19T13:10:56.872Z,20.97
2023-05-19T13:13:25.259Z,21.08
2023-05-19T13:15:53.774Z,21.53
2023-05-19T13:18:22.458Z,21.69
2023-05-19T13:20:52.805Z,21.69
2023-05-19T13:23:22.536Z,21.49
2023-05-19T13:25:51.853Z,21.63
2023-05-19T13:28:20.204Z,21.41
2023-05-19T13:30:49.616Z,20.96
2023-05-19T13:33:18.070Z,21.34
2023-05-19T13:35:46.611Z,21.40
2023-05-19T13:38:15.077Z,21.61
2023-05-19T13:40:45.824Z,21.84
2023-05-19T13:43:14.282Z,21.49
2023-05-19T13:45:43.167Z,21.80
2023-05-19T13:48:12.206Z,21.89
2023-05-19T13:50:40.641Z,21.85
2023-05-19T13:53:09.435Z,21.89
2023-05-19T13:55:38.303Z,22.10
2023-05-19T13:58:10.846Z,22.22
2023-05-19T14:00:39.759Z,22.31
2023-05-19T14:03:08.576Z,21.89
2023-05-19T14:05:37.499Z,21.91
2023-05-19T14:08:06.835Z,21.77
2023-05-19T14:10:35.500Z,21.90
2023-05-19T14:13:30.282Z,22.07
2023-05-19T14:15:54.334Z,22.00
2023-05-19T14:18:22.703Z,22.07
2023-05-19T14:20:50.982Z,21.83
2023-05-19T14:23:20.418Z,21.84
2023-05-19T14:25:48.857Z,21.95
2023-05-19T14:28:18.346Z,21.98
2023-05-19T14:30:46.991Z,22.00
2023-05-19T14:33:16.843Z,22.04
2023-05-19T14:35:45.283Z,22.03
2023-05-19T14:38:14.506Z,22.11
2023-05-19T14:40:43.112Z,22.15
2023-05-19T14:43:11.652Z,22.17
2023-05-19T14:45:41.885Z,22.17
2023-05-19T14:48:12.044Z,22.17
2023-05-19T14:50:41.796Z,22.15
2023-05-19T14:53:10.176Z,21.29
2023-05-19T14:55:38.872Z,20.70
2023-05-19T14:58:13.074Z,21.20
2023-05-19T15:00:55.020Z,20.98
2023-05-19T15:03:24.210Z,21.25
2023-05-19T15:05:54.032Z,21.39
2023-05-19T15:08:22.388Z,21.49
2023-05-19T15:10:51.306Z,21.28
2023-05-19T15:13:21.401Z,21.46
2023-05-19T15:15:49.859Z,21.51
2023-05-19T15:18:18.811Z,21.61
2023-05-19T15:20:47.512Z,21.71
2023-05-19T15:23:17.248Z,21.76
2023-05-19T15:25:46.118Z,21.64
2023-05-19T15:28:16.692Z,21.62
2023-05-19T15:30:47.474Z,21.31
2023-05-19T15:33:15.841Z,21.33
2023-05-19T15:35:44.201Z,21.39
2023-05-19T15:38:13.110Z,21.43
2023-05-19T15:40:43.963Z,21.58
2023-05-19T15:43:12.306Z,21.60
2023-05-19T15:45:40.909Z,21.66
2023-05-19T15:48:09.453Z,21.75
2023-05-19T15:50:38.010Z,21.79
2023-05-19T15:53:07.702Z,21.67
2023-05-19T15:55:36.156Z,21.64
2023-05-19T15:58:06.264Z,21.64
2023-05-19T16:00:34.779Z,21.42
2023-05-19T16:03:03.301Z,21.19
2023-05-19T16:05:31.724Z,21.42
2023-05-19T16:08:00.212Z,21.47
2023-05-19T16:10:28.548Z,21.56
2023-05-19T16:12:56.816Z,21.57
2023-05-19T16:15:26.557Z,21.64
2023-05-19T16:17:55.326Z,21.42
2023-05-19T16:20:26.798Z,21.01
2023-05-19T16:22:55.809Z,20.31
2023-05-19T16:25:24.538Z,21.21
2023-05-19T16:27:53.545Z,21.35
2023-05-19T16:30:23.034Z,21.43
2023-05-19T16:32:53.734Z,21.53
2023-05-19T16:35:22.772Z,21.58
2023-05-19T16:37:51.262Z,21.48
2023-05-19T16:40:19.887Z,21.54
2023-05-19T16:42:48.280Z,21.48
2023-05-19T16:45:18.300Z,21.55
2023-05-19T16:47:46.735Z,21.53
2023-05-19T16:50:16.533Z,21.49
2023-05-19T16:52:44.901Z,21.52
2023-05-19T16:55:17.265Z,21.58
2023-05-19T16:57:45.725Z,21.50
2023-05-19T17:00:15.586Z,21.60
2023-05-19T17:02:43.987Z,21.54
2023-05-19T17:05:12.345Z,21.55
2023-05-19T17:07:42.076Z,21.53
2023-05-19T17:10:11.615Z,21.45
2023-05-19T17:12:40.112Z,21.37
2023-05-19T17:15:09.742Z,21.55
2023-05-19T17:17:38.187Z,21.48
2023-05-19T17:20:08.642Z,21.48
2023-05-19T17:22:37.030Z,21.48
2023-05-19T17:25:08.652Z,21.31
2023-05-19T17:27:37.064Z,21.44
2023-05-19T17:30:07.050Z,21.26
2023-05-19T17:32:39.291Z,21.38
2023-05-19T17:35:09.370Z,21.30
2023-05-19T17:37:37.759Z,21.22
2023-05-19T17:40:09.738Z,21.24
2023-05-19T17:42:38.105Z,21.20
2023-05-19T17:45:08.266Z,21.12
2023-05-19T17:47:36.716Z,21.11
2023-05-19T17:50:05.634Z,21.17
2023-05-19T17:52:35.046Z,21.10
2023-05-19T17:55:04.289Z,21.07
2023-05-19T17:57:35.063Z,20.95
2023-05-19T18:00:04.370Z,20.86
2023-05-19T18:02:33.827Z,20.78
2023-05-19T18:05:03.321Z,20.75
2023-05-19T18:07:33.905Z,20.64
2023-05-19T18:10:02.869Z,20.58
2023-05-19T18:12:31.214Z,20.57
2023-05-19T18:15:01.129Z,20.63
2023-05-19T18:17:29.561Z,20.53
2023-05-19T18:19:57.932Z,20.43
2023-05-19T18:22:27.404Z,20.46
2023-05-19T18:24:57.528Z,20.28
2023-05-19T18:27:28.063Z,20.33
2023-05-19T18:29:56.383Z,20.34
2023-05-19T18:32:26.291Z,20.23
2023-05-19T18:34:54.802Z,20.22
2023-05-19T18:37:23.624Z,20.15
2023-05-19T18:39:52.016Z,20.14
2023-05-19T18:42:20.488Z,20.18
2023-05-19T18:44:50.589Z,20.24
2023-05-19T18:47:19.747Z,20.13
2023-05-19T18:49:50.268Z,20.12
2023-05-19T18:52:19.949Z,20.11
2023-05-19T18:54:48.764Z,20.12
2023-05-19T18:57:17.143Z,20.07
2023-05-19T18:59:45.449Z,20.00
2023-05-19T19:02:13.840Z,19.92
2023-05-19T19:04:42.340Z,19.83
2023-05-19T19:07:12.304Z,19.75
2023-05-19T19:09:43.612Z,19.69
2023-05-19T19:12:12.033Z,19.69
2023-05-19T19:14:40.495Z,19.76
2023-05-19T19:17:09.157Z,19.64
2023-05-19T19:19:37.750Z,19.73
2023-05-19T19:22:06.447Z,19.65
2023-05-19T19:24:36.762Z,19.57
2023-05-19T19:27:06.106Z,19.58
2023-05-19T19:29:34.524Z,19.48
2023-05-19T19:32:02.973Z,19.55
2023-05-19T19:34:31.406Z,19.51
2023-05-19T19:36:59.761Z,19.47
2023-05-19T19:39:28.234Z,19.49
2023-05-19T19:41:57.958Z,19.42
2023-05-19T19:44:26.513Z,19.30
2023-05-19T19:46:54.952Z,19.32
2023-05-19T19:49:23.449Z,19.28
2023-05-19T19:51:52.021Z,19.31
2023-05-19T19:54:20.418Z,19.29
2023-05-19T19:56:48.740Z,19.24
2023-05-19T19:59:18.900Z,19.28
2023-05-19T20:01:47.405Z,19.14
2023-05-19T20:04:16.161Z,19.16
2023-05-19T20:06:44.640Z,19.11
2023-05-19T20:09:13.142Z,19.16
2023-05-19T20:11:41.553Z,18.56
2023-05-19T20:14:10.013Z,19.00
2023-05-19T20:16:40.505Z,18.93
2023-05-19T20:19:09.449Z,18.99
2023-05-19T20:21:37.956Z,18.96
2023-05-19T20:24:06.712Z,18.90
2023-05-19T20:26:35.267Z,18.92
2023-05-19T20:29:03.603Z,18.91
2023-05-19T20:31:31.921Z,18.89
2023-05-19T20:34:01.964Z,18.85
2023-05-19T20:36:30.970Z,18.88
2023-05-19T20:38:59.678Z,18.89
2023-05-19T20:41:28.212Z,18.84
2023-05-19T20:43:57.232Z,18.80
2023-05-19T20:46:25.701Z,18.78
2023-05-19T20:48:54.094Z,18.64
2023-05-19T20:51:25.240Z,18.59
2023-05-19T20:53:53.786Z,18.56
2023-05-19T20:56:23.017Z,18.52
2023-05-19T20:58:51.347Z,18.48
2023-05-19T21:01:19.819Z,18.45
2023-05-19T21:03:48.212Z,18.44
2023-05-19T21:06:16.517Z,18.40
2023-05-19T21:08:46.251Z,18.40
2023-05-19T21:11:14.712Z,18.23
2023-05-19T21:13:43.348Z,18.21
2023-05-19T21:16:11.750Z,18.22
2023-05-19T21:18:40.208Z,18.22
2023-05-19T21:21:08.566Z,18.23
2023-05-19T21:23:36.950Z,18.19
2023-05-19T21:26:07.346Z,18.21
2023-05-19T21:28:35.828Z,18.12
2023-05-19T21:31:05.462Z,18.15
2023-05-19T21:33:33.921Z,18.09
2023-05-19T21:36:02.254Z,18.13
2023-05-19T21:38:30.873Z,18.15
2023-05-19T21:40:59.312Z,18.02
2023-05-19T21:43:28.980Z,18.06
2023-05-19T21:45:57.298Z,18.01
2023-05-19T21:48:25.984Z,17.95
2023-05-19T21:50:55.354Z,17.95
2023-05-19T21:53:23.784Z,17.97
2023-05-19T21:55:52.230Z,17.88
2023-05-19T21:58:20.746Z,17.91
2023-05-19T22:00:56.025Z,17.91
2023-05-19T22:03:24.696Z,17.78
2023-05-19T22:05:55.549Z,17.30
2023-05-19T22:08:24.516Z,17.72
2023-05-19T22:10:53.847Z,17.70
2023-05-19T22:13:22.301Z,17.70
2023-05-19T22:15:52.103Z,17.65
2023-05-19T22:18:20.521Z,17.61
2023-05-19T22:20:48.802Z,17.59
2023-05-19T22:23:17.252Z,17.62
2023-05-19T22:25:45.657Z,17.60
2023-05-19T22:28:13.998Z,17.49
2023-05-19T22:30:43.780Z,17.46
2023-05-19T22:33:13.723Z,17.52
2023-05-19T22:35:42.825Z,17.49
2023-05-19T22:38:11.810Z,17.44
2023-05-19T22:40:40.312Z,17.46
2023-05-19T22:43:08.726Z,17.41
2023-05-19T22:45:37.306Z,17.47
2023-05-19T22:48:06.608Z,17.48
2023-05-19T22:50:36.348Z,17.41
2023-05-19T22:53:04.702Z,17.40
2023-05-19T22:55:33.291Z,17.47
2023-05-19T22:58:01.805Z,17.49
2023-05-19T23:00:30.294Z,17.42
2023-05-19T23:02:58.989Z,17.41
2023-05-19T23:05:27.369Z,17.43
2023-05-19T23:07:57.175Z,17.39
2023-05-19T23:10:25.566Z,17.30
2023-05-19T23:12:54.008Z,17.20
2023-05-19T23:15:22.462Z,17.16
2023-05-19T23:17:50.906Z,17.03
2023-05-19T23:20:19.468Z,17.01
2023-05-19T23:22:47.774Z,16.99
2023-05-19T23:25:17.679Z,17.01
2023-05-19T23:27:46.573Z,16.91
2023-05-19T23:30:14.892Z,16.97
2023-05-19T23:32:43.368Z,16.98
2023-05-19T23:35:14.030Z,16.96
2023-05-19T23:37:42.191Z,16.99
2023-05-19T23:40:11.470Z,16.96
2023-05-19T23:42:41.216Z,16.96
2023-05-19T23:45:10.656Z,16.94
2023-05-19T23:47:39.282Z,16.99
2023-05-19T23:50:08.488Z,16.92
2023-05-19T23:52:36.802Z,16.89
2023-05-19T23:55:06.020Z,16.85
2023-05-19T23:57:34.290Z,16.75
